sensor_id;sensor_type;location;lat;lon;timestamp;P1;durP1;ratioP1;P2;durP2;ratioP2
70733;SDS011;58320;48.804;9.252;2023-04-24T00:00:15;2.50;;;0.93;;
70733;SDS011;58320;48.804;9.252;2023-04-24T00:02:42;2.58;;;1.20;;
70733;SDS011;58320;48.804;9.252;2023-04-24T00:05:11;3.78;;;1.38;;
70733;SDS011;58320;48.804;9.252;2023-04-24T00:07:42;3.03;;;1.33;;
70733;SDS011;58320;48.804;9.252;2023-04-24T00:10:09;4.07;;;1.00;;
70733;SDS011;58320;48.804;9.252;2023-04-24T00:12:35;2.60;;;1.10;;
70733;SDS011;58320;48.804;9.252;2023-04-24T00:15:01;2.50;;;0.90;;
70733;SDS011;58320;48.804;9.252;2023-04-24T00:17:28;2.30;;;0.82;;
70733;SDS011;58320;48.804;9.252;2023-04-24T00:19:54;3.07;;;1.00;;
70733;SDS011;58320;48.804;9.252;2023-04-24T00:22:26;1.88;;;0.80;;
70733;SDS011;58320;48.804;9.252;2023-04-24T00:24:53;3.30;;;1.00;;
70733;SDS011;58320;48.804;9.252;2023-04-24T00:27:19;2.15;;;1.00;;
70733;SDS011;58320;48.804;9.252;2023-04-24T00:29:45;1.93;;;0.90;;
70733;SDS011;58320;48.804;9.252;2023-04-24T00:32:10;2.03;;;0.90;;
70733;SDS011;58320;48.804;9.252;2023-04-24T00:34:36;2.33;;;1.17;;
70733;SDS011;58320;48.804;9.252;2023-04-24T00:37:02;3.10;;;0.97;;
70733;SDS011;58320;48.804;9.252;2023-04-24T00:39:28;3.08;;;0.90;;
70733;SDS011;58320;48.804;9.252;2023-04-24T00:41:54;2.40;;;1.08;;
70733;SDS011;58320;48.804;9.252;2023-04-24T00:44:20;2.90;;;1.57;;
70733;SDS011;58320;48.804;9.252;2023-04-24T00:46:46;2.47;;;1.15;;
70733;SDS011;58320;48.804;9.252;2023-04-24T00:49:16;2.75;;;1.13;;
70733;SDS011;58320;48.804;9.252;2023-04-24T00:51:43;3.22;;;1.00;;
70733;SDS011;58320;48.804;9.252;2023-04-24T00:54:10;4.10;;;1.30;;
70733;SDS011;58320;48.804;9.252;2023-04-24T00:56:37;3.13;;;0.93;;
70733;SDS011;58320;48.804;9.252;2023-04-24T00:59:03;2.58;;;1.00;;
70733;SDS011;58320;48.804;9.252;2023-04-24T01:01:29;3.63;;;0.93;;
70733;SDS011;58320;48.804;9.252;2023-04-24T01:03:55;3.43;;;0.90;;
70733;SDS011;58320;48.804;9.252;2023-04-24T01:06:22;2.78;;;0.80;;
70733;SDS011;58320;48.804;9.252;2023-04-24T01:08:52;3.13;;;1.00;;
70733;SDS011;58320;48.804;9.252;2023-04-24T01:11:20;2.60;;;0.80;;
70733;SDS011;58320;48.804;9.252;2023-04-24T01:13:47;2.78;;;0.90;;
70733;SDS011;58320;48.804;9.252;2023-04-24T01:16:13;1.93;;;0.63;;
70733;SDS011;58320;48.804;9.252;2023-04-24T01:18:42;2.30;;;0.90;;
70733;SDS011;58320;48.804;9.252;2023-04-24T01:21:08;3.08;;;1.00;;
70733;SDS011;58320;48.804;9.252;2023-04-24T01:23:36;3.17;;;0.82;;
70733;SDS011;58320;48.804;9.252;2023-04-24T01:26:02;4.27;;;0.80;;
70733;SDS011;58320;48.804;9.252;2023-04-24T01:28:28;2.67;;;0.70;;
70733;SDS011;58320;48.804;9.252;2023-04-24T01:30:54;2.33;;;0.80;;
70733;SDS011;58320;48.804;9.252;2023-04-24T01:33:21;3.15;;;0.90;;
70733;SDS011;58320;48.804;9.252;2023-04-24T01:35:48;3.72;;;0.90;;
70733;SDS011;58320;48.804;9.252;2023-04-24T01:38:14;4.23;;;1.00;;
70733;SDS011;58320;48.804;9.252;2023-04-24T01:40:40;3.35;;;0.90;;
70733;SDS011;58320;48.804;9.252;2023-04-24T01:43:06;2.33;;;0.90;;
70733;SDS011;58320;48.804;9.252;2023-04-24T01:45:32;2.50;;;0.90;;
70733;SDS011;58320;48.804;9.252;2023-04-24T01:47:58;2.20;;;1.20;;
70733;SDS011;58320;48.804;9.252;2023-04-24T01:50:25;2.90;;;1.10;;
70733;SDS011;58320;48.804;9.252;2023-04-24T01:52:51;2.05;;;0.90;;
70733;SDS011;58320;48.804;9.252;2023-04-24T01:55:16;3.50;;;1.00;;
70733;SDS011;58320;48.804;9.252;2023-04-24T01:57:42;2.60;;;0.85;;
70733;SDS011;58320;48.804;9.252;2023-04-24T02:00:08;2.40;;;1.00;;
70733;SDS011;58320;48.804;9.252;2023-04-24T02:02:36;2.23;;;0.70;;
70733;SDS011;58320;48.804;9.252;2023-04-24T02:05:02;2.08;;;0.90;;
70733;SDS011;58320;48.804;9.252;2023-04-24T02:07:31;2.28;;;1.10;;
70733;SDS011;58320;48.804;9.252;2023-04-24T02:09:57;2.45;;;1.00;;
70733;SDS011;58320;48.804;9.252;2023-04-24T02:12:23;3.33;;;1.13;;
70733;SDS011;58320;48.804;9.252;2023-04-24T02:14:49;3.35;;;1.10;;
70733;SDS011;58320;48.804;9.252;2023-04-24T02:17:15;2.40;;;0.90;;
70733;SDS011;58320;48.804;9.252;2023-04-24T02:19:41;3.85;;;1.23;;
70733;SDS011;58320;48.804;9.252;2023-04-24T02:22:06;3.63;;;1.60;;
70733;SDS011;58320;48.804;9.252;2023-04-24T02:24:32;3.90;;;1.42;;
70733;SDS011;58320;48.804;9.252;2023-04-24T02:26:58;3.27;;;1.30;;
70733;SDS011;58320;48.804;9.252;2023-04-24T02:29:25;3.00;;;1.27;;
70733;SDS011;58320;48.804;9.252;2023-04-24T02:31:50;2.25;;;0.90;;
70733;SDS011;58320;48.804;9.252;2023-04-24T02:34:16;2.97;;;1.23;;
70733;SDS011;58320;48.804;9.252;2023-04-24T02:36:42;2.08;;;1.10;;
70733;SDS011;58320;48.804;9.252;2023-04-24T02:39:07;3.63;;;1.33;;
70733;SDS011;58320;48.804;9.252;2023-04-24T02:41:33;2.70;;;1.20;;
70733;SDS011;58320;48.804;9.252;2023-04-24T02:43:59;2.90;;;1.30;;
70733;SDS011;58320;48.804;9.252;2023-04-24T02:46:25;4.45;;;1.10;;
70733;SDS011;58320;48.804;9.252;2023-04-24T02:48:50;3.35;;;1.20;;
70733;SDS011;58320;48.804;9.252;2023-04-24T02:51:16;2.97;;;0.90;;
70733;SDS011;58320;48.804;9.252;2023-04-24T02:53:42;2.85;;;1.10;;
70733;SDS011;58320;48.804;9.252;2023-04-24T02:56:08;2.50;;;1.20;;
70733;SDS011;58320;48.804;9.252;2023-04-24T02:58:37;3.15;;;1.00;;
70733;SDS011;58320;48.804;9.252;2023-04-24T03:01:03;3.93;;;1.50;;
70733;SDS011;58320;48.804;9.252;2023-04-24T03:03:29;3.53;;;1.38;;
70733;SDS011;58320;48.804;9.252;2023-04-24T03:05:55;4.68;;;1.40;;
70733;SDS011;58320;48.804;9.252;2023-04-24T03:08:22;5.00;;;1.70;;
70733;SDS011;58320;48.804;9.252;2023-04-24T03:10:48;4.20;;;1.30;;
70733;SDS011;58320;48.804;9.252;2023-04-24T03:13:15;4.43;;;1.50;;
70733;SDS011;58320;48.804;9.252;2023-04-24T03:15:41;3.38;;;1.90;;
70733;SDS011;58320;48.804;9.252;2023-04-24T03:18:07;2.83;;;1.77;;
70733;SDS011;58320;48.804;9.252;2023-04-24T03:20:33;3.83;;;1.50;;
70733;SDS011;58320;48.804;9.252;2023-04-24T03:22:59;3.90;;;1.65;;
70733;SDS011;58320;48.804;9.252;2023-04-24T03:25:24;3.70;;;1.40;;
70733;SDS011;58320;48.804;9.252;2023-04-24T03:27:50;3.10;;;1.40;;
70733;SDS011;58320;48.804;9.252;2023-04-24T03:30:16;4.97;;;1.73;;
70733;SDS011;58320;48.804;9.252;2023-04-24T03:32:42;3.80;;;1.40;;
70733;SDS011;58320;48.804;9.252;2023-04-24T03:35:08;3.47;;;1.60;;
70733;SDS011;58320;48.804;9.252;2023-04-24T03:37:34;3.33;;;1.67;;
70733;SDS011;58320;48.804;9.252;2023-04-24T03:40:00;4.88;;;1.80;;
70733;SDS011;58320;48.804;9.252;2023-04-24T03:42:27;2.80;;;1.60;;
70733;SDS011;58320;48.804;9.252;2023-04-24T03:44:52;3.58;;;1.80;;
70733;SDS011;58320;48.804;9.252;2023-04-24T03:47:18;4.73;;;1.60;;
70733;SDS011;58320;48.804;9.252;2023-04-24T03:49:44;3.88;;;1.42;;
70733;SDS011;58320;48.804;9.252;2023-04-24T03:52:10;3.58;;;1.50;;
70733;SDS011;58320;48.804;9.252;2023-04-24T03:54:36;4.65;;;2.00;;
70733;SDS011;58320;48.804;9.252;2023-04-24T03:57:01;3.07;;;1.20;;
70733;SDS011;58320;48.804;9.252;2023-04-24T03:59:29;2.53;;;1.23;;
70733;SDS011;58320;48.804;9.252;2023-04-24T04:01:55;2.63;;;1.15;;
70733;SDS011;58320;48.804;9.252;2023-04-24T04:04:21;2.33;;;1.13;;
70733;SDS011;58320;48.804;9.252;2023-04-24T04:06:47;2.58;;;1.10;;
70733;SDS011;58320;48.804;9.252;2023-04-24T04:09:13;3.42;;;1.33;;
70733;SDS011;58320;48.804;9.252;2023-04-24T04:11:38;4.00;;;1.20;;
70733;SDS011;58320;48.804;9.252;2023-04-24T04:14:04;3.85;;;1.33;;
70733;SDS011;58320;48.804;9.252;2023-04-24T04:16:30;3.22;;;1.27;;
70733;SDS011;58320;48.804;9.252;2023-04-24T04:18:56;2.83;;;1.20;;
70733;SDS011;58320;48.804;9.252;2023-04-24T04:21:22;3.00;;;1.52;;
70733;SDS011;58320;48.804;9.252;2023-04-24T04:23:48;3.47;;;1.23;;
70733;SDS011;58320;48.804;9.252;2023-04-24T04:26:14;2.75;;;1.50;;
70733;SDS011;58320;48.804;9.252;2023-04-24T04:28:39;2.90;;;1.42;;
70733;SDS011;58320;48.804;9.252;2023-04-24T04:31:05;4.30;;;0.97;;
70733;SDS011;58320;48.804;9.252;2023-04-24T04:33:32;2.53;;;1.20;;
70733;SDS011;58320;48.804;9.252;2023-04-24T04:35:59;3.00;;;1.30;;
70733;SDS011;58320;48.804;9.252;2023-04-24T04:38:25;3.33;;;1.20;;
70733;SDS011;58320;48.804;9.252;2023-04-24T04:40:55;3.13;;;1.27;;
70733;SDS011;58320;48.804;9.252;2023-04-24T04:43:24;3.87;;;1.17;;
70733;SDS011;58320;48.804;9.252;2023-04-24T04:45:50;2.90;;;1.15;;
70733;SDS011;58320;48.804;9.252;2023-04-24T04:48:17;2.75;;;1.30;;
70733;SDS011;58320;48.804;9.252;2023-04-24T04:50:43;2.88;;;1.40;;
70733;SDS011;58320;48.804;9.252;2023-04-24T04:53:10;4.07;;;1.77;;
70733;SDS011;58320;48.804;9.252;2023-04-24T04:55:36;3.73;;;1.23;;
70733;SDS011;58320;48.804;9.252;2023-04-24T04:58:02;3.10;;;1.45;;
70733;SDS011;58320;48.804;9.252;2023-04-24T05:00:28;4.47;;;1.73;;
70733;SDS011;58320;48.804;9.252;2023-04-24T05:02:59;3.00;;;1.27;;
70733;SDS011;58320;48.804;9.252;2023-04-24T05:05:25;2.90;;;1.30;;
70733;SDS011;58320;48.804;9.252;2023-04-24T05:07:50;2.90;;;1.45;;
70733;SDS011;58320;48.804;9.252;2023-04-24T05:10:16;4.27;;;1.80;;
70733;SDS011;58320;48.804;9.252;2023-04-24T05:12:42;3.22;;;1.48;;
70733;SDS011;58320;48.804;9.252;2023-04-24T05:15:08;2.78;;;1.60;;
70733;SDS011;58320;48.804;9.252;2023-04-24T05:17:34;4.43;;;1.30;;
70733;SDS011;58320;48.804;9.252;2023-04-24T05:20:01;4.15;;;1.45;;
70733;SDS011;58320;48.804;9.252;2023-04-24T05:22:30;2.67;;;1.48;;
70733;SDS011;58320;48.804;9.252;2023-04-24T05:24:56;2.60;;;1.17;;
70733;SDS011;58320;48.804;9.252;2023-04-24T05:27:22;2.65;;;1.30;;
70733;SDS011;58320;48.804;9.252;2023-04-24T05:29:48;3.80;;;1.50;;
70733;SDS011;58320;48.804;9.252;2023-04-24T05:32:14;4.03;;;1.30;;
70733;SDS011;58320;48.804;9.252;2023-04-24T05:34:40;2.90;;;1.50;;
70733;SDS011;58320;48.804;9.252;2023-04-24T05:37:05;3.15;;;1.20;;
70733;SDS011;58320;48.804;9.252;2023-04-24T05:39:34;2.92;;;1.30;;
70733;SDS011;58320;48.804;9.252;2023-04-24T05:42:00;3.30;;;1.50;;
70733;SDS011;58320;48.804;9.252;2023-04-24T05:44:26;2.67;;;1.07;;
70733;SDS011;58320;48.804;9.252;2023-04-24T05:46:52;2.70;;;1.30;;
70733;SDS011;58320;48.804;9.252;2023-04-24T05:49:20;3.53;;;1.92;;
70733;SDS011;58320;48.804;9.252;2023-04-24T05:51:45;3.87;;;1.60;;
70733;SDS011;58320;48.804;9.252;2023-04-24T05:54:11;3.35;;;1.40;;
70733;SDS011;58320;48.804;9.252;2023-04-24T05:56:37;3.00;;;1.20;;
70733;SDS011;58320;48.804;9.252;2023-04-24T05:59:03;3.97;;;1.40;;
70733;SDS011;58320;48.804;9.252;2023-04-24T06:01:29;3.97;;;1.60;;
70733;SDS011;58320;48.804;9.252;2023-04-24T06:03:56;2.72;;;1.70;;
70733;SDS011;58320;48.804;9.252;2023-04-24T06:06:23;2.87;;;1.63;;
70733;SDS011;58320;48.804;9.252;2023-04-24T06:08:49;2.92;;;1.80;;
70733;SDS011;58320;48.804;9.252;2023-04-24T06:11:15;3.92;;;1.50;;
70733;SDS011;58320;48.804;9.252;2023-04-24T06:13:40;3.33;;;1.70;;
70733;SDS011;58320;48.804;9.252;2023-04-24T06:16:06;4.40;;;1.70;;
70733;SDS011;58320;48.804;9.252;2023-04-24T06:18:33;3.35;;;2.03;;
70733;SDS011;58320;48.804;9.252;2023-04-24T06:20:58;4.82;;;2.05;;
70733;SDS011;58320;48.804;9.252;2023-04-24T06:23:24;3.10;;;1.83;;
70733;SDS011;58320;48.804;9.252;2023-04-24T06:25:50;3.45;;;1.65;;
70733;SDS011;58320;48.804;9.252;2023-04-24T06:28:16;4.20;;;1.47;;
70733;SDS011;58320;48.804;9.252;2023-04-24T06:30:42;3.53;;;1.60;;
70733;SDS011;58320;48.804;9.252;2023-04-24T06:33:08;2.95;;;1.60;;
70733;SDS011;58320;48.804;9.252;2023-04-24T06:35:35;3.65;;;1.73;;
70733;SDS011;58320;48.804;9.252;2023-04-24T06:38:03;5.88;;;1.83;;
70733;SDS011;58320;48.804;9.252;2023-04-24T06:40:28;3.13;;;1.57;;
70733;SDS011;58320;48.804;9.252;2023-04-24T06:42:55;3.65;;;1.70;;
70733;SDS011;58320;48.804;9.252;2023-04-24T06:45:21;3.95;;;1.80;;
70733;SDS011;58320;48.804;9.252;2023-04-24T06:47:47;3.33;;;1.83;;
70733;SDS011;58320;48.804;9.252;2023-04-24T06:50:12;5.63;;;1.90;;
70733;SDS011;58320;48.804;9.252;2023-04-24T06:52:38;5.22;;;1.70;;
70733;SDS011;58320;48.804;9.252;2023-04-24T06:55:05;3.38;;;1.67;;
70733;SDS011;58320;48.804;9.252;2023-04-24T06:57:32;3.65;;;1.80;;
70733;SDS011;58320;48.804;9.252;2023-04-24T06:59:57;3.83;;;1.90;;
70733;SDS011;58320;48.804;9.252;2023-04-24T07:02:24;3.85;;;1.80;;
70733;SDS011;58320;48.804;9.252;2023-04-24T07:04:50;3.42;;;2.08;;
70733;SDS011;58320;48.804;9.252;2023-04-24T07:07:16;4.10;;;1.83;;
70733;SDS011;58320;48.804;9.252;2023-04-24T07:09:42;3.35;;;2.15;;
70733;SDS011;58320;48.804;9.252;2023-04-24T07:12:09;3.90;;;1.90;;
70733;SDS011;58320;48.804;9.252;2023-04-24T07:14:38;3.00;;;1.33;;
70733;SDS011;58320;48.804;9.252;2023-04-24T07:17:04;3.33;;;1.70;;
70733;SDS011;58320;48.804;9.252;2023-04-24T07:19:31;3.70;;;1.77;;
70733;SDS011;58320;48.804;9.252;2023-04-24T07:22:00;3.00;;;1.60;;
70733;SDS011;58320;48.804;9.252;2023-04-24T07:24:26;3.95;;;1.50;;
70733;SDS011;58320;48.804;9.252;2023-04-24T07:26:52;3.77;;;1.73;;
70733;SDS011;58320;48.804;9.252;2023-04-24T07:29:19;3.42;;;1.60;;
70733;SDS011;58320;48.804;9.252;2023-04-24T07:31:46;3.20;;;1.60;;
70733;SDS011;58320;48.804;9.252;2023-04-24T07:34:12;3.33;;;1.90;;
70733;SDS011;58320;48.804;9.252;2023-04-24T07:36:37;3.10;;;1.50;;
70733;SDS011;58320;48.804;9.252;2023-04-24T07:39:03;4.10;;;1.60;;
70733;SDS011;58320;48.804;9.252;2023-04-24T07:41:31;3.40;;;1.83;;
70733;SDS011;58320;48.804;9.252;2023-04-24T07:43:56;3.00;;;1.50;;
70733;SDS011;58320;48.804;9.252;2023-04-24T07:46:23;4.15;;;1.73;;
70733;SDS011;58320;48.804;9.252;2023-04-24T07:48:49;3.22;;;1.58;;
70733;SDS011;58320;48.804;9.252;2023-04-24T07:51:15;3.33;;;1.50;;
70733;SDS011;58320;48.804;9.252;2023-04-24T07:53:42;3.47;;;1.20;;
70733;SDS011;58320;48.804;9.252;2023-04-24T07:56:08;3.58;;;1.48;;
70733;SDS011;58320;48.804;9.252;2023-04-24T07:58:34;3.05;;;1.30;;
70733;SDS011;58320;48.804;9.252;2023-04-24T08:01:00;2.60;;;1.27;;
70733;SDS011;58320;48.804;9.252;2023-04-24T08:03:26;3.23;;;1.47;;
70733;SDS011;58320;48.804;9.252;2023-04-24T08:05:52;3.97;;;1.67;;
70733;SDS011;58320;48.804;9.252;2023-04-24T08:08:19;2.80;;;1.33;;
70733;SDS011;58320;48.804;9.252;2023-04-24T08:10:47;4.57;;;1.58;;
70733;SDS011;58320;48.804;9.252;2023-04-24T08:13:12;3.80;;;1.63;;
70733;SDS011;58320;48.804;9.252;2023-04-24T08:15:38;3.10;;;1.47;;
70733;SDS011;58320;48.804;9.252;2023-04-24T08:18:04;4.47;;;1.40;;
70733;SDS011;58320;48.804;9.252;2023-04-24T08:20:30;2.95;;;1.50;;
70733;SDS011;58320;48.804;9.252;2023-04-24T08:22:56;2.90;;;1.33;;
70733;SDS011;58320;48.804;9.252;2023-04-24T08:25:22;2.90;;;1.30;;
70733;SDS011;58320;48.804;9.252;2023-04-24T08:27:49;3.20;;;1.50;;
70733;SDS011;58320;48.804;9.252;2023-04-24T08:30:16;4.13;;;1.40;;
70733;SDS011;58320;48.804;9.252;2023-04-24T08:32:42;3.03;;;1.38;;
70733;SDS011;58320;48.804;9.252;2023-04-24T08:35:08;3.90;;;1.50;;
70733;SDS011;58320;48.804;9.252;2023-04-24T08:37:34;3.38;;;1.30;;
70733;SDS011;58320;48.804;9.252;2023-04-24T08:40:01;3.30;;;1.38;;
70733;SDS011;58320;48.804;9.252;2023-04-24T08:42:32;3.38;;;1.30;;
70733;SDS011;58320;48.804;9.252;2023-04-24T08:45:00;2.97;;;1.50;;
70733;SDS011;58320;48.804;9.252;2023-04-24T08:47:27;2.93;;;1.30;;
70733;SDS011;58320;48.804;9.252;2023-04-24T08:49:55;2.60;;;1.20;;
70733;SDS011;58320;48.804;9.252;2023-04-24T08:52:21;3.38;;;1.80;;
70733;SDS011;58320;48.804;9.252;2023-04-24T08:54:48;3.20;;;1.40;;
70733;SDS011;58320;48.804;9.252;2023-04-24T08:57:14;2.85;;;1.42;;
70733;SDS011;58320;48.804;9.252;2023-04-24T08:59:41;3.10;;;1.30;;
70733;SDS011;58320;48.804;9.252;2023-04-24T09:02:09;2.67;;;1.40;;
70733;SDS011;58320;48.804;9.252;2023-04-24T09:04:36;3.28;;;1.45;;
70733;SDS011;58320;48.804;9.252;2023-04-24T09:07:03;3.53;;;1.40;;
70733;SDS011;58320;48.804;9.252;2023-04-24T09:09:31;2.83;;;1.10;;
70733;SDS011;58320;48.804;9.252;2023-04-24T09:11:58;3.23;;;1.63;;
70733;SDS011;58320;48.804;9.252;2023-04-24T09:14:25;2.88;;;1.33;;
70733;SDS011;58320;48.804;9.252;2023-04-24T09:16:52;2.95;;;1.30;;
70733;SDS011;58320;48.804;9.252;2023-04-24T09:19:18;5.40;;;1.65;;
70733;SDS011;58320;48.804;9.252;2023-04-24T09:21:46;2.87;;;1.43;;
70733;SDS011;58320;48.804;9.252;2023-04-24T09:24:16;2.80;;;1.45;;
70733;SDS011;58320;48.804;9.252;2023-04-24T09:26:47;2.80;;;1.60;;
70733;SDS011;58320;48.804;9.252;2023-04-24T09:29:15;3.42;;;1.80;;
70733;SDS011;58320;48.804;9.252;2023-04-24T09:31:42;3.57;;;1.57;;
70733;SDS011;58320;48.804;9.252;2023-04-24T09:34:09;4.03;;;1.50;;
70733;SDS011;58320;48.804;9.252;2023-04-24T09:36:35;3.28;;;1.63;;
70733;SDS011;58320;48.804;9.252;2023-04-24T09:39:10;3.47;;;1.45;;
70733;SDS011;58320;48.804;9.252;2023-04-24T09:41:44;3.93;;;1.43;;
70733;SDS011;58320;48.804;9.252;2023-04-24T09:44:17;4.32;;;1.58;;
70733;SDS011;58320;48.804;9.252;2023-04-24T09:46:49;3.55;;;1.83;;
70733;SDS011;58320;48.804;9.252;2023-04-24T09:49:26;3.85;;;1.80;;
70733;SDS011;58320;48.804;9.252;2023-04-24T09:52:07;4.20;;;1.70;;
70733;SDS011;58320;48.804;9.252;2023-04-24T09:54:35;4.60;;;1.40;;
70733;SDS011;58320;48.804;9.252;2023-04-24T09:57:02;3.55;;;1.48;;
70733;SDS011;58320;48.804;9.252;2023-04-24T09:59:28;3.45;;;1.58;;
70733;SDS011;58320;48.804;9.252;2023-04-24T10:01:54;3.45;;;1.45;;
70733;SDS011;58320;48.804;9.252;2023-04-24T10:04:22;4.25;;;1.63;;
70733;SDS011;58320;48.804;9.252;2023-04-24T10:06:54;2.97;;;1.40;;
70733;SDS011;58320;48.804;9.252;2023-04-24T10:09:23;3.47;;;1.30;;
70733;SDS011;58320;48.804;9.252;2023-04-24T10:11:52;2.78;;;1.40;;
70733;SDS011;58320;48.804;9.252;2023-04-24T10:14:21;3.22;;;1.20;;
70733;SDS011;58320;48.804;9.252;2023-04-24T10:16:49;2.63;;;1.20;;
70733;SDS011;58320;48.804;9.252;2023-04-24T10:19:21;2.63;;;1.30;;
70733;SDS011;58320;48.804;9.252;2023-04-24T10:21:51;2.28;;;1.10;;
70733;SDS011;58320;48.804;9.252;2023-04-24T10:24:19;3.67;;;1.52;;
70733;SDS011;58320;48.804;9.252;2023-04-24T10:26:46;2.50;;;1.20;;
70733;SDS011;58320;48.804;9.252;2023-04-24T10:29:16;3.17;;;1.08;;
70733;SDS011;58320;48.804;9.252;2023-04-24T10:31:43;3.53;;;1.53;;
70733;SDS011;58320;48.804;9.252;2023-04-24T10:34:13;2.80;;;1.27;;
70733;SDS011;58320;48.804;9.252;2023-04-24T10:36:42;3.10;;;1.30;;
70733;SDS011;58320;48.804;9.252;2023-04-24T10:39:15;3.00;;;1.10;;
70733;SDS011;58320;48.804;9.252;2023-04-24T10:41:42;4.25;;;1.50;;
70733;SDS011;58320;48.804;9.252;2023-04-24T10:44:09;3.60;;;1.47;;
70733;SDS011;58320;48.804;9.252;2023-04-24T10:46:39;2.85;;;1.20;;
70733;SDS011;58320;48.804;9.252;2023-04-24T10:49:13;3.67;;;1.60;;
70733;SDS011;58320;48.804;9.252;2023-04-24T10:54:21;2.70;;;1.40;;
70733;SDS011;58320;48.804;9.252;2023-04-24T10:56:49;3.42;;;1.80;;
70733;SDS011;58320;48.804;9.252;2023-04-24T10:59:29;4.57;;;1.60;;
70733;SDS011;58320;48.804;9.252;2023-04-24T11:02:00;2.90;;;1.30;;
70733;SDS011;58320;48.804;9.252;2023-04-24T11:04:29;3.20;;;1.70;;
70733;SDS011;58320;48.804;9.252;2023-04-24T11:06:57;2.90;;;1.40;;
70733;SDS011;58320;48.804;9.252;2023-04-24T11:09:25;2.45;;;1.02;;
70733;SDS011;58320;48.804;9.252;2023-04-24T11:12:02;4.85;;;1.48;;
70733;SDS011;58320;48.804;9.252;2023-04-24T11:14:53;3.55;;;1.13;;
70733;SDS011;58320;48.804;9.252;2023-04-24T11:17:29;2.70;;;1.38;;
70733;SDS011;58320;48.804;9.252;2023-04-24T11:20:09;3.33;;;1.20;;
70733;SDS011;58320;48.804;9.252;2023-04-24T11:22:37;2.67;;;1.38;;
70733;SDS011;58320;48.804;9.252;2023-04-24T11:25:08;3.30;;;1.25;;
70733;SDS011;58320;48.804;9.252;2023-04-24T11:27:43;3.35;;;1.33;;
70733;SDS011;58320;48.804;9.252;2023-04-24T11:30:11;4.03;;;1.25;;
70733;SDS011;58320;48.804;9.252;2023-04-24T11:32:40;3.00;;;1.40;;
70733;SDS011;58320;48.804;9.252;2023-04-24T11:37:47;2.95;;;1.60;;
70733;SDS011;58320;48.804;9.252;2023-04-24T11:40:16;2.70;;;1.30;;
70733;SDS011;58320;48.804;9.252;2023-04-24T11:42:48;3.72;;;1.50;;
70733;SDS011;58320;48.804;9.252;2023-04-24T11:45:22;2.70;;;1.20;;
70733;SDS011;58320;48.804;9.252;2023-04-24T11:47:51;4.65;;;1.30;;
70733;SDS011;58320;48.804;9.252;2023-04-24T11:50:18;3.47;;;1.60;;
70733;SDS011;58320;48.804;9.252;2023-04-24T11:52:48;2.50;;;1.20;;
70733;SDS011;58320;48.804;9.252;2023-04-24T11:57:44;2.97;;;1.20;;
70733;SDS011;58320;48.804;9.252;2023-04-24T12:00:16;5.45;;;1.42;;
70733;SDS011;58320;48.804;9.252;2023-04-24T12:02:46;2.60;;;1.17;;
70733;SDS011;58320;48.804;9.252;2023-04-24T12:05:46;2.85;;;1.30;;
70733;SDS011;58320;48.804;9.252;2023-04-24T12:08:05;3.30;;;1.38;;
70733;SDS011;58320;48.804;9.252;2023-04-24T12:10:31;3.10;;;1.20;;
70733;SDS011;58320;48.804;9.252;2023-04-24T12:12:58;3.22;;;1.50;;
70733;SDS011;58320;48.804;9.252;2023-04-24T12:15:25;3.90;;;2.05;;
70733;SDS011;58320;48.804;9.252;2023-04-24T12:17:52;3.28;;;1.40;;
70733;SDS011;58320;48.804;9.252;2023-04-24T12:20:30;2.78;;;1.55;;
70733;SDS011;58320;48.804;9.252;2023-04-24T12:22:57;2.53;;;1.37;;
70733;SDS011;58320;48.804;9.252;2023-04-24T12:25:26;4.70;;;1.40;;
70733;SDS011;58320;48.804;9.252;2023-04-24T12:28:15;6.15;;;1.40;;
70733;SDS011;58320;48.804;9.252;2023-04-24T12:30:41;4.57;;;1.45;;
70733;SDS011;58320;48.804;9.252;2023-04-24T12:33:17;3.70;;;1.40;;
70733;SDS011;58320;48.804;9.252;2023-04-24T12:35:47;3.07;;;1.20;;
70733;SDS011;58320;48.804;9.252;2023-04-24T12:38:21;3.17;;;1.42;;
70733;SDS011;58320;48.804;9.252;2023-04-24T12:41:00;2.80;;;1.40;;
70733;SDS011;58320;48.804;9.252;2023-04-24T12:43:34;5.05;;;1.50;;
70733;SDS011;58320;48.804;9.252;2023-04-24T12:46:00;3.47;;;1.55;;
70733;SDS011;58320;48.804;9.252;2023-04-24T12:48:27;3.47;;;1.40;;
70733;SDS011;58320;48.804;9.252;2023-04-24T12:50:53;2.50;;;1.25;;
70733;SDS011;58320;48.804;9.252;2023-04-24T12:53:20;2.90;;;1.73;;
70733;SDS011;58320;48.804;9.252;2023-04-24T12:55:46;3.20;;;1.40;;
70733;SDS011;58320;48.804;9.252;2023-04-24T12:58:17;3.47;;;1.30;;
70733;SDS011;58320;48.804;9.252;2023-04-24T13:00:46;4.60;;;1.33;;
70733;SDS011;58320;48.804;9.252;2023-04-24T13:03:12;4.90;;;1.55;;
70733;SDS011;58320;48.804;9.252;2023-04-24T13:05:39;2.90;;;1.50;;
70733;SDS011;58320;48.804;9.252;2023-04-24T13:08:05;4.25;;;1.75;;
70733;SDS011;58320;48.804;9.252;2023-04-24T13:10:31;3.33;;;1.60;;
70733;SDS011;58320;48.804;9.252;2023-04-24T13:12:57;4.53;;;1.95;;
70733;SDS011;58320;48.804;9.252;2023-04-24T13:15:23;3.20;;;2.00;;
70733;SDS011;58320;48.804;9.252;2023-04-24T13:17:49;4.50;;;2.08;;
70733;SDS011;58320;48.804;9.252;2023-04-24T13:20:15;3.30;;;1.90;;
70733;SDS011;58320;48.804;9.252;2023-04-24T13:22:41;5.05;;;1.90;;
70733;SDS011;58320;48.804;9.252;2023-04-24T13:25:07;3.80;;;1.80;;
70733;SDS011;58320;48.804;9.252;2023-04-24T13:27:33;3.88;;;2.30;;
70733;SDS011;58320;48.804;9.252;2023-04-24T13:29:59;3.37;;;1.83;;
70733;SDS011;58320;48.804;9.252;2023-04-24T13:32:25;3.88;;;1.88;;
70733;SDS011;58320;48.804;9.252;2023-04-24T13:34:51;3.20;;;1.67;;
70733;SDS011;58320;48.804;9.252;2023-04-24T13:37:17;4.67;;;1.70;;
70733;SDS011;58320;48.804;9.252;2023-04-24T13:39:43;4.03;;;1.85;;
70733;SDS011;58320;48.804;9.252;2023-04-24T13:42:09;3.03;;;1.50;;
70733;SDS011;58320;48.804;9.252;2023-04-24T13:44:34;3.30;;;1.92;;
70733;SDS011;58320;48.804;9.252;2023-04-24T13:47:00;4.35;;;1.60;;
70733;SDS011;58320;48.804;9.252;2023-04-24T13:49:27;3.17;;;1.80;;
70733;SDS011;58320;48.804;9.252;2023-04-24T13:51:53;3.35;;;1.50;;
70733;SDS011;58320;48.804;9.252;2023-04-24T13:54:20;3.53;;;1.83;;
70733;SDS011;58320;48.804;9.252;2023-04-24T13:56:48;3.38;;;1.77;;
70733;SDS011;58320;48.804;9.252;2023-04-24T13:59:14;3.63;;;1.85;;
70733;SDS011;58320;48.804;9.252;2023-04-24T14:01:40;3.80;;;1.90;;
70733;SDS011;58320;48.804;9.252;2023-04-24T14:04:06;4.25;;;1.98;;
70733;SDS011;58320;48.804;9.252;2023-04-24T14:06:32;4.85;;;1.95;;
70733;SDS011;58320;48.804;9.252;2023-04-24T14:08:58;4.57;;;2.03;;
70733;SDS011;58320;48.804;9.252;2023-04-24T14:11:24;4.13;;;2.00;;
70733;SDS011;58320;48.804;9.252;2023-04-24T14:13:51;3.45;;;1.50;;
70733;SDS011;58320;48.804;9.252;2023-04-24T14:16:17;3.47;;;1.90;;
70733;SDS011;58320;48.804;9.252;2023-04-24T14:18:43;3.23;;;1.90;;
70733;SDS011;58320;48.804;9.252;2023-04-24T14:21:08;4.00;;;1.80;;
70733;SDS011;58320;48.804;9.252;2023-04-24T14:23:34;3.57;;;1.43;;
70733;SDS011;58320;48.804;9.252;2023-04-24T14:26:00;3.63;;;1.88;;
70733;SDS011;58320;48.804;9.252;2023-04-24T14:28:26;3.65;;;2.00;;
70733;SDS011;58320;48.804;9.252;2023-04-24T14:30:51;3.87;;;1.60;;
70733;SDS011;58320;48.804;9.252;2023-04-24T14:33:18;3.05;;;1.77;;
70733;SDS011;58320;48.804;9.252;2023-04-24T14:35:44;3.42;;;1.70;;
70733;SDS011;58320;48.804;9.252;2023-04-24T14:38:10;2.97;;;1.73;;
70733;SDS011;58320;48.804;9.252;2023-04-24T14:40:36;3.30;;;1.67;;
70733;SDS011;58320;48.804;9.252;2023-04-24T14:43:02;5.35;;;1.55;;
70733;SDS011;58320;48.804;9.252;2023-04-24T14:45:28;3.92;;;1.90;;
70733;SDS011;58320;48.804;9.252;2023-04-24T14:47:54;4.00;;;1.30;;
70733;SDS011;58320;48.804;9.252;2023-04-24T14:50:21;3.50;;;1.67;;
70733;SDS011;58320;48.804;9.252;2023-04-24T14:52:47;3.72;;;1.40;;
70733;SDS011;58320;48.804;9.252;2023-04-24T14:55:13;2.77;;;1.50;;